CheckWX is a tool to help pilots better visualize weather data.  It is not intended as a substitute for an official pre-flight weather briefing.

23:35:48 UTC

KMLT METAR
Millinocket Municipal Airport
Millinocket, Maine, USA
Current

43 mins ago

KMLT 182253Z AUTO VRB03KT 10SM OVC046 09/04 A2965 RMK AO2 SLP047 T00890044
Observed
Oct-18 @ 22:53 UTC
Wind
  • Variable at 3 KTS
Visibility
10 SM
Flight Rules
VFR
Cloud Levels
  • Overcast at 4,600' AGL
Temperature
C / 48°F
Dewpoint
C / 39°F
Humidity
71%
Altimeter
29.65" Hg
Pressure
1004.02 hPa
Previous

2 hours ago

KMLT 182153Z AUTO 30008KT 10SM OVC055 09/04 A2962 RMK AO2 SLP038 T00940044
Observed
Oct-18 @ 21:53 UTC
Wind
  • 300° at 8 KTS
Visibility
10 SM
Flight Rules
VFR
Cloud Levels
  • Overcast at 5,500' AGL
Temperature
C / 48°F
Dewpoint
C / 39°F
Humidity
71%
Altimeter
29.62" Hg
Pressure
1003.02 hPa
Previous

3 hours ago

KMLT 182053Z AUTO 30007G14KT 10SM FEW034 BKN045 OVC060 09/05 A2959 RMK AO2 RAB08E47 SLP027 P0000 60000 T00940050 52023
Observed
Oct-18 @ 20:53 UTC
Wind
  • 300° at 7 KTS
  • Gusting to 14 KTS
Visibility
10 SM
Flight Rules
VFR
Cloud Levels
  • Few at 3,400' AGL
  • Broken at 4,500' AGL
  • Overcast at 6,000' AGL
Temperature
C / 48°F
Dewpoint
C / 41°F
Humidity
76%
Altimeter
29.59" Hg
Pressure
1002.02 hPa
Current Rain
0.01"